Time;durP1;ratioP1;P1;durP2;ratioP2;P2;SDS_P1;SDS_P2;PMS_P1;PMS_P2;Temp;Humidity;BMP_temperature;BMP_pressure;BME280_temperature;BME280_humidity;BME280_pressure;Samples;Min_cycle;Max_cycle;Signal;HPM_P1;HPM_P2
2022/04/14 00:01:58;;;;;;;;;;;;;;;;;;5152491;27;887;-67
2022/04/14 00:04:24;;;;;;;;;;;;;;;;;;5152621;27;986;-68
2022/04/14 00:06:50;;;;;;;;;;;;;;;;;;5119238;27;1237;-67
2022/04/14 00:09:15;;;;;;;;;;;;;;;;;;5137674;27;919;-67
2022/04/14 00:11:40;;;;;;;;;;;;;;;;;;5136790;27;895;-68
2022/04/14 00:14:06;;;;;;;;;;;;;;;;;;5155937;27;903;-67
2022/04/14 00:16:32;;;;;;;;;;;;;;;;;;5155472;27;1085;-68
2022/04/14 00:18:57;;;;;;;;;;;;;;;;;;5155254;27;848;-67
2022/04/14 00:21:22;;;;;;;;;;;;;;;;;;5155551;27;1924;-68
2022/04/14 00:23:48;;;;;;;;;;;;;;;;;;5136837;27;922;-68
2022/04/14 00:26:13;;;;;;;;;;;;;;;;;;5155310;27;843;-68
2022/04/14 00:28:38;;;;;;;;;;;;;;;;;;5155229;27;856;-68
2022/04/14 00:31:04;;;;;;;;;;;;;;;;;;5155345;27;919;-67
2022/04/14 00:33:29;;;;;;;;;;;;;;;;;;5154732;27;970;-68
2022/04/14 00:35:55;;;;;;;;;;;;;;;;;;5155156;27;839;-68
2022/04/14 00:38:20;;;;;;;;;;;;;;;;;;5155507;27;832;-68
2022/04/14 00:40:47;;;;;;;;;;;;;;;;;;5119116;27;1963;-68
2022/04/14 00:43:12;;;;;;;;;;;;;;;;;;5154955;27;887;-68
2022/04/14 00:45:38;;;;;;;;;;;;;;;;;;5135500;27;1017;-67
2022/04/14 00:48:03;;;;;;;;;;;;;;;;;;5154676;27;1146;-68
2022/04/14 00:50:29;;;;;;;;;;;;;;;;;;5154193;27;957;-68
2022/04/14 00:52:55;;;;;;;;;;;;;;;;;;5135745;27;761;-68
2022/04/14 00:55:20;;;;;;;;;;;;;;;;;;5119073;27;1213;-68
2022/04/14 00:57:45;;;;;;;;;;;;;;;;;;5153839;27;907;-68
2022/04/14 01:00:11;;;;;;;;;;;;;;;;;;5135818;27;1905;-68
2022/04/14 01:02:36;;;;;;;;;;;;;;;;;;5134924;27;1158;-68
2022/04/14 01:05:02;;;;;;;;;;;;;;;;;;5135619;27;978;-68
2022/04/14 01:07:28;;;;;;;;;;;;;;;;;;5154374;27;902;-68
2022/04/14 01:09:54;;;;;;;;;;;;;;;;;;5154378;27;914;-68
2022/04/14 01:12:20;;;;;;;;;;;;;;;;;;5135880;27;1256;-68
2022/04/14 01:14:45;;;;;;;;;;;;;;;;;;5153594;27;990;-69
2022/04/14 01:17:10;;;;;;;;;;;;;;;;;;5153723;27;812;-68
2022/04/14 01:19:36;;;;;;;;;;;;;;;;;;5153780;27;1963;-68
2022/04/14 01:22:08;;;;;;;;;;;;;;;;;;5154604;27;978;-68
2022/04/14 01:24:34;;;;;;;;;;;;;;;;;;5153785;27;909;-68
2022/04/14 01:27:00;;;;;;;;;;;;;;;;;;5136204;27;2052;-69
2022/04/14 01:29:26;;;;;;;;;;;;;;;;;;5154542;27;761;-68
2022/04/14 01:31:52;;;;;;;;;;;;;;;;;;5154092;27;900;-68
2022/04/14 01:34:18;;;;;;;;;;;;;;;;;;5155154;27;1090;-68
2022/04/14 01:36:43;;;;;;;;;;;;;;;;;;5153981;27;812;-69
2022/04/14 01:39:10;;;;;;;;;;;;;;;;;;5154346;27;1385;-68
2022/04/14 01:41:36;;;;;;;;;;;;;;;;;;5118405;27;1961;-68
2022/04/14 01:44:01;;;;;;;;;;;;;;;;;;5153993;27;982;-68
2022/04/14 01:46:26;;;;;;;;;;;;;;;;;;5154480;27;1167;-68
2022/04/14 01:48:51;;;;;;;;;;;;;;;;;;5153768;27;1049;-68
2022/04/14 01:51:17;;;;;;;;;;;;;;;;;;5135698;27;1129;-68
2022/04/14 01:53:42;;;;;;;;;;;;;;;;;;5153376;27;1060;-68
2022/04/14 01:56:07;;;;;;;;;;;;;;;;;;5153919;27;907;-68
2022/04/14 01:58:33;;;;;;;;;;;;;;;;;;5134456;27;1195;-68
2022/04/14 02:00:58;;;;;;;;;;;;;;;;;;5153588;27;1975;-68
2022/04/14 02:03:23;;;;;;;;;;;;;;;;;;5153422;27;954;-68
2022/04/14 02:05:48;;;;;;;;;;;;;;;;;;5152844;27;1150;-68
2022/04/14 02:08:14;;;;;;;;;;;;;;;;;;5153388;27;978;-69
2022/04/14 02:10:39;;;;;;;;;;;;;;;;;;5152520;27;967;-68
2022/04/14 02:13:04;;;;;;;;;;;;;;;;;;5153167;27;950;-68
2022/04/14 02:15:29;;;;;;;;;;;;;;;;;;5152997;27;816;-68
2022/04/14 02:17:55;;;;;;;;;;;;;;;;;;5152497;27;879;-68
2022/04/14 02:20:20;;;;;;;;;;;;;;;;;;5152934;27;1897;-67
2022/04/14 02:22:45;;;;;;;;;;;;;;;;;;5152428;27;832;-68
2022/04/14 02:25:10;;;;;;;;;;;;;;;;;;5153153;27;942;-68
2022/04/14 02:27:36;;;;;;;;;;;;;;;;;;5152090;27;915;-68
2022/04/14 02:30:01;;;;;;;;;;;;;;;;;;5151940;27;990;-68
2022/04/14 02:32:26;;;;;;;;;;;;;;;;;;5134123;27;1298;-68
2022/04/14 02:34:52;;;;;;;;;;;;;;;;;;5152005;27;849;-68
2022/04/14 02:37:17;;;;;;;;;;;;;;;;;;5152873;27;816;-68
2022/04/14 02:39:42;;;;;;;;;;;;;;;;;;5152017;27;1911;-68
2022/04/14 02:42:07;;;;;;;;;;;;;;;;;;5152821;27;844;-68
2022/04/14 02:44:32;;;;;;;;;;;;;;;;;;5133759;27;942;-68
2022/04/14 02:46:58;;;;;;;;;;;;;;;;;;5133480;27;1050;-68
2022/04/14 02:49:23;;;;;;;;;;;;;;;;;;5134427;27;1424;-68
2022/04/14 02:51:49;;;;;;;;;;;;;;;;;;5152000;27;880;-68
2022/04/14 02:54:14;;;;;;;;;;;;;;;;;;5134346;27;974;-68
2022/04/14 02:56:40;;;;;;;;;;;;;;;;;;5133485;27;1202;-68
2022/04/14 02:59:05;;;;;;;;;;;;;;;;;;5152758;27;871;-68
2022/04/14 03:01:30;;;;;;;;;;;;;;;;;;5134099;27;1972;-68
2022/04/14 03:03:56;;;;;;;;;;;;;;;;;;5137588;27;1416;-68
2022/04/14 03:06:21;;;;;;;;;;;;;;;;;;5112394;28;942;-68
2022/04/14 03:08:46;;;;;;;;;;;;;;;;;;5092702;28;813;-68
2022/04/14 03:11:12;;;;;;;;;;;;;;;;;;5093654;28;750;-68
2022/04/14 03:13:38;;;;;;;;;;;;;;;;;;5092983;28;1425;-68
2022/04/14 03:16:03;;;;;;;;;;;;;;;;;;5093105;28;1267;-68
2022/04/14 03:18:29;;;;;;;;;;;;;;;;;;5111832;28;821;-68
2022/04/14 03:20:54;;;;;;;;;;;;;;;;;;5093063;28;1960;-68
2022/04/14 03:23:20;;;;;;;;;;;;;;;;;;5093248;28;1175;-68
2022/04/14 03:25:45;;;;;;;;;;;;;;;;;;5111096;28;840;-68
2022/04/14 03:28:10;;;;;;;;;;;;;;;;;;5110731;28;824;-68
2022/04/14 03:30:36;;;;;;;;;;;;;;;;;;5110971;28;766;-68
2022/04/14 03:33:01;;;;;;;;;;;;;;;;;;5110435;28;898;-68
2022/04/14 03:35:26;;;;;;;;;;;;;;;;;;5111240;28;848;-69
2022/04/14 03:37:52;;;;;;;;;;;;;;;;;;5111118;28;1015;-68
2022/04/14 03:40:17;;;;;;;;;;;;;;;;;;5094265;28;1957;-68
2022/04/14 03:42:43;;;;;;;;;;;;;;;;;;5114010;28;929;-68
2022/04/14 03:45:08;;;;;;;;;;;;;;;;;;5095845;28;1218;-68
2022/04/14 03:47:34;;;;;;;;;;;;;;;;;;5114355;28;955;-67
2022/04/14 03:49:59;;;;;;;;;;;;;;;;;;5113905;27;1488;-67
2022/04/14 03:52:24;;;;;;;;;;;;;;;;;;5114684;28;766;-68
2022/04/14 03:54:50;;;;;;;;;;;;;;;;;;5113994;28;821;-68
2022/04/14 03:57:15;;;;;;;;;;;;;;;;;;5095891;28;880;-68
2022/04/14 03:59:40;;;;;;;;;;;;;;;;;;5095654;28;1902;-68
2022/04/14 04:02:05;;;;;;;;;;;;;;;;;;5113650;28;900;-68
2022/04/14 04:04:32;;;;;;;;;;;;;;;;;;5095876;28;1116;-68
2022/04/14 04:06:57;;;;;;;;;;;;;;;;;;5095522;28;1422;-68
2022/04/14 04:09:22;;;;;;;;;;;;;;;;;;5095998;28;714;-68
2022/04/14 04:11:48;;;;;;;;;;;;;;;;;;5095338;28;938;-68
2022/04/14 04:14:13;;;;;;;;;;;;;;;;;;5095263;28;1157;-68
2022/04/14 04:16:38;;;;;;;;;;;;;;;;;;5095163;28;1254;-68
2022/04/14 04:19:04;;;;;;;;;;;;;;;;;;5095093;28;1195;-67
2022/04/14 04:21:30;;;;;;;;;;;;;;;;;;5113888;28;1973;-67
2022/04/14 04:23:55;;;;;;;;;;;;;;;;;;5095624;28;827;-67
2022/04/14 04:26:21;;;;;;;;;;;;;;;;;;5114068;28;793;-67
2022/04/14 04:28:46;;;;;;;;;;;;;;;;;;5095266;28;793;-68
2022/04/14 04:31:11;;;;;;;;;;;;;;;;;;5113683;28;939;-68
2022/04/14 04:33:37;;;;;;;;;;;;;;;;;;5113767;28;993;-68
2022/04/14 04:36:02;;;;;;;;;;;;;;;;;;5113581;28;856;-68
2022/04/14 04:38:28;;;;;;;;;;;;;;;;;;5095615;28;1092;-68
2022/04/14 04:40:55;;;;;;;;;;;;;;;;;;5113515;28;1961;-68
2022/04/14 04:43:20;;;;;;;;;;;;;;;;;;5113868;28;844;-68
2022/04/14 04:45:45;;;;;;;;;;;;;;;;;;5113693;28;742;-68
2022/04/14 04:48:10;;;;;;;;;;;;;;;;;;5113457;28;1095;-68
2022/04/14 04:50:36;;;;;;;;;;;;;;;;;;5113512;28;884;-68
2022/04/14 04:53:01;;;;;;;;;;;;;;;;;;5112565;28;821;-68
2022/04/14 04:55:26;;;;;;;;;;;;;;;;;;5095540;28;896;-68
2022/04/14 04:57:51;;;;;;;;;;;;;;;;;;5113917;28;1050;-68
2022/04/14 05:00:17;;;;;;;;;;;;;;;;;;5113247;28;1909;-68
2022/04/14 05:02:42;;;;;;;;;;;;;;;;;;5113860;28;875;-68
2022/04/14 05:05:07;;;;;;;;;;;;;;;;;;5113794;28;892;-68
2022/04/14 05:07:32;;;;;;;;;;;;;;;;;;5097924;27;1595;-68
2022/04/14 05:09:58;;;;;;;;;;;;;;;;;;5132308;27;1269;-68
2022/04/14 05:12:23;;;;;;;;;;;;;;;;;;5118017;27;1297;-68
2022/04/14 05:14:49;;;;;;;;;;;;;;;;;;5152608;27;1162;-67
2022/04/14 05:17:14;;;;;;;;;;;;;;;;;;5152343;27;1150;-68
2022/04/14 05:19:39;;;;;;;;;;;;;;;;;;5148826;27;1898;-67
2022/04/14 05:22:05;;;;;;;;;;;;;;;;;;5132107;27;1182;-67
2022/04/14 05:24:30;;;;;;;;;;;;;;;;;;5151301;27;1166;-67
2022/04/14 05:26:56;;;;;;;;;;;;;;;;;;5123936;27;1370;-67
2022/04/14 05:29:21;;;;;;;;;;;;;;;;;;5113430;27;1198;-67
2022/04/14 05:31:46;;;;;;;;;;;;;;;;;;5132189;27;1222;-67
2022/04/14 05:34:12;;;;;;;;;;;;;;;;;;5116556;27;1210;-67
2022/04/14 05:36:37;;;;;;;;;;;;;;;;;;5151089;27;1162;-67
2022/04/14 05:39:02;;;;;;;;;;;;;;;;;;5153036;27;1095;-67
2022/04/14 05:41:27;;;;;;;;;;;;;;;;;;5133904;27;1897;-67
2022/04/14 05:43:53;;;;;;;;;;;;;;;;;;5152297;27;1150;-67
2022/04/14 05:46:18;;;;;;;;;;;;;;;;;;5138524;27;1209;-67
2022/04/14 05:48:43;;;;;;;;;;;;;;;;;;5130907;27;1147;-67
2022/04/14 05:51:08;;;;;;;;;;;;;;;;;;5137190;27;1285;-68
2022/04/14 05:53:35;;;;;;;;;;;;;;;;;;5134282;27;1269;-67
2022/04/14 05:56:00;;;;;;;;;;;;;;;;;;5134486;27;1575;-67
2022/04/14 05:58:26;;;;;;;;;;;;;;;;;;5134526;27;1367;-67
2022/04/14 06:00:51;;;;;;;;;;;;;;;;;;5153099;27;1974;-68
2022/04/14 06:03:16;;;;;;;;;;;;;;;;;;5133433;27;1134;-68
2022/04/14 06:05:42;;;;;;;;;;;;;;;;;;5152777;27;808;-67
2022/04/14 06:08:07;;;;;;;;;;;;;;;;;;5152779;27;831;-67
2022/04/14 06:10:35;;;;;;;;;;;;;;;;;;5153544;27;844;-67
2022/04/14 06:13:00;;;;;;;;;;;;;;;;;;5134160;27;1307;-67
2022/04/14 06:15:26;;;;;;;;;;;;;;;;;;5152700;27;998;-67
2022/04/14 06:17:52;;;;;;;;;;;;;;;;;;5153009;27;899;-68
2022/04/14 06:20:17;;;;;;;;;;;;;;;;;;5152777;27;1958;-68
2022/04/14 06:22:43;;;;;;;;;;;;;;;;;;5152920;27;1016;-68
2022/04/14 06:25:22;;;;;;;;;;;;;;;;;;5153098;27;1027;-68
2022/04/14 06:27:48;;;;;;;;;;;;;;;;;;5153098;27;824;-68
2022/04/14 06:30:14;;;;;;;;;;;;;;;;;;5134266;27;1432;-68
2022/04/14 06:32:39;;;;;;;;;;;;;;;;;;5152922;27;1116;-68
2022/04/14 06:35:09;;;;;;;;;;;;;;;;;;5152750;27;856;-68
2022/04/14 06:37:34;;;;;;;;;;;;;;;;;;5153089;27;930;-68
2022/04/14 06:40:00;;;;;;;;;;;;;;;;;;5152571;27;1901;-68
2022/04/14 06:42:25;;;;;;;;;;;;;;;;;;5152749;27;847;-68
2022/04/14 06:44:50;;;;;;;;;;;;;;;;;;5152844;27;1168;-68
2022/04/14 06:47:15;;;;;;;;;;;;;;;;;;5152717;27;742;-68
2022/04/14 06:49:41;;;;;;;;;;;;;;;;;;5130558;27;1414;-68
2022/04/14 06:52:06;;;;;;;;;;;;;;;;;;5132751;27;1033;-68
2022/04/14 06:54:31;;;;;;;;;;;;;;;;;;5127889;28;1198;-68
2022/04/14 06:56:57;;;;;;;;;;;;;;;;;;5130459;27;1139;-68
2022/04/14 06:59:22;;;;;;;;;;;;;;;;;;5130518;28;1328;-68
2022/04/14 07:01:47;;;;;;;;;;;;;;;;;;5131808;27;1968;-68
2022/04/14 07:04:13;;;;;;;;;;;;;;;;;;5131663;27;1155;-68
2022/04/14 07:06:38;;;;;;;;;;;;;;;;;;5132175;27;942;-68
2022/04/14 07:09:03;;;;;;;;;;;;;;;;;;5131737;27;907;-68
2022/04/14 07:11:29;;;;;;;;;;;;;;;;;;5131663;27;1042;-68
2022/04/14 07:13:55;;;;;;;;;;;;;;;;;;5131808;27;907;-68
2022/04/14 07:16:20;;;;;;;;;;;;;;;;;;5126638;27;1166;-68
2022/04/14 07:18:45;;;;;;;;;;;;;;;;;;5115479;28;1037;-68
2022/04/14 07:21:10;;;;;;;;;;;;;;;;;;5113794;28;1898;-68
2022/04/14 07:23:36;;;;;;;;;;;;;;;;;;5114776;28;887;-68
2022/04/14 07:26:01;;;;;;;;;;;;;;;;;;5113203;28;656;-68
2022/04/14 07:28:26;;;;;;;;;;;;;;;;;;5113029;28;1352;-68
2022/04/14 07:30:52;;;;;;;;;;;;;;;;;;5115231;28;895;-68
2022/04/14 07:33:17;;;;;;;;;;;;;;;;;;5115045;28;1077;-67
2022/04/14 07:35:42;;;;;;;;;;;;;;;;;;5096598;28;1389;-67
2022/04/14 07:38:08;;;;;;;;;;;;;;;;;;5096695;28;1250;-67
2022/04/14 07:40:33;;;;;;;;;;;;;;;;;;5114497;28;1902;-67
2022/04/14 07:42:58;;;;;;;;;;;;;;;;;;5114666;28;812;-67
2022/04/14 07:45:23;;;;;;;;;;;;;;;;;;5115004;28;829;-68
2022/04/14 07:47:49;;;;;;;;;;;;;;;;;;5114428;28;1038;-68
2022/04/14 07:50:16;;;;;;;;;;;;;;;;;;5112779;28;1354;-68
2022/04/14 07:52:59;;;;;;;;;;;;;;;;;;5114592;28;843;-68
2022/04/14 07:55:28;;;;;;;;;;;;;;;;;;5113501;28;895;-68
2022/04/14 07:57:55;;;;;;;;;;;;;;;;;;5114540;28;765;-67
2022/04/14 08:00:20;;;;;;;;;;;;;;;;;;5112933;28;1921;-67
2022/04/14 08:02:47;;;;;;;;;;;;;;;;;;5113101;28;1218;-67
2022/04/14 08:05:12;;;;;;;;;;;;;;;;;;5113654;28;1195;-68
2022/04/14 08:07:37;;;;;;;;;;;;;;;;;;5126991;27;1171;-68
2022/04/14 08:10:03;;;;;;;;;;;;;;;;;;5133920;27;1162;-68
2022/04/14 08:12:29;;;;;;;;;;;;;;;;;;5133740;27;1178;-67
2022/04/14 08:14:55;;;;;;;;;;;;;;;;;;5134265;27;1230;-68
2022/04/14 08:17:20;;;;;;;;;;;;;;;;;;5116325;27;1540;-68
2022/04/14 08:19:45;;;;;;;;;;;;;;;;;;5133742;27;1909;-68
2022/04/14 08:22:10;;;;;;;;;;;;;;;;;;5135185;27;1178;-68
2022/04/14 08:24:36;;;;;;;;;;;;;;;;;;5122256;27;1221;-68
2022/04/14 08:27:01;;;;;;;;;;;;;;;;;;5112025;28;1171;-68
2022/04/14 08:29:26;;;;;;;;;;;;;;;;;;5113029;28;1191;-68
2022/04/14 08:31:52;;;;;;;;;;;;;;;;;;5114325;28;1194;-68
2022/04/14 08:34:17;;;;;;;;;;;;;;;;;;5111859;28;1831;-67
2022/04/14 08:36:42;;;;;;;;;;;;;;;;;;5112503;28;1195;-68
2022/04/14 08:39:07;;;;;;;;;;;;;;;;;;5114158;28;947;-67
2022/04/14 08:41:34;;;;;;;;;;;;;;;;;;5113926;28;1969;-67
2022/04/14 08:44:01;;;;;;;;;;;;;;;;;;5113602;28;947;-67
2022/04/14 08:46:27;;;;;;;;;;;;;;;;;;5112205;28;1470;-67
2022/04/14 08:48:55;;;;;;;;;;;;;;;;;;5118998;27;1112;-67
2022/04/14 08:51:21;;;;;;;;;;;;;;;;;;5134449;27;808;-68
2022/04/14 08:53:47;;;;;;;;;;;;;;;;;;5133435;27;867;-67
2022/04/14 08:56:12;;;;;;;;;;;;;;;;;;5133821;27;895;-68
2022/04/14 08:58:41;;;;;;;;;;;;;;;;;;5133573;27;789;-67
2022/04/14 09:01:06;;;;;;;;;;;;;;;;;;5133888;27;1977;-67
2022/04/14 09:03:32;;;;;;;;;;;;;;;;;;5133775;27;843;-67
2022/04/14 09:05:57;;;;;;;;;;;;;;;;;;5114902;27;1273;-67
2022/04/14 09:08:22;;;;;;;;;;;;;;;;;;5114968;27;876;-67
2022/04/14 09:10:48;;;;;;;;;;;;;;;;;;5114321;27;1400;-67
2022/04/14 09:13:14;;;;;;;;;;;;;;;;;;5133608;27;951;-68
2022/04/14 09:15:39;;;;;;;;;;;;;;;;;;5114806;27;1305;-67
2022/04/14 09:18:05;;;;;;;;;;;;;;;;;;5114979;27;1073;-67
2022/04/14 09:20:32;;;;;;;;;;;;;;;;;;5133425;27;1886;-68
2022/04/14 09:23:15;;;;;;;;;;;;;;;;;;5133198;27;906;-67
2022/04/14 09:25:41;;;;;;;;;;;;;;;;;;5114740;27;1290;-68
2022/04/14 09:28:16;;;;;;;;;;;;;;;;;;5132828;27;826;-68
2022/04/14 09:30:57;;;;;;;;;;;;;;;;;;5132786;27;1121;-68
2022/04/14 09:33:23;;;;;;;;;;;;;;;;;;5133268;27;904;-69
2022/04/14 09:36:02;;;;;;;;;;;;;;;;;;5132956;27;927;-68
2022/04/14 09:38:28;;;;;;;;;;;;;;;;;;5133033;27;942;-69
2022/04/14 09:40:53;;;;;;;;;;;;;;;;;;5097035;27;1910;-68
2022/04/14 09:43:21;;;;;;;;;;;;;;;;;;5115039;27;876;-68
2022/04/14 09:45:49;;;;;;;;;;;;;;;;;;5132277;27;1054;-68
2022/04/14 09:48:16;;;;;;;;;;;;;;;;;;5132802;27;864;-68
2022/04/14 09:50:47;;;;;;;;;;;;;;;;;;5132764;27;863;-68
2022/04/14 09:53:12;;;;;;;;;;;;;;;;;;5132974;27;899;-68
2022/04/14 09:55:38;;;;;;;;;;;;;;;;;;5132602;27;883;-68
2022/04/14 09:58:07;;;;;;;;;;;;;;;;;;5132930;27;966;-68
2022/04/14 10:00:37;;;;;;;;;;;;;;;;;;5132411;27;1963;-68
2022/04/14 10:03:13;;;;;;;;;;;;;;;;;;5132762;27;1088;-66
2022/04/14 10:05:39;;;;;;;;;;;;;;;;;;5132887;27;1299;-67
2022/04/14 10:08:07;;;;;;;;;;;;;;;;;;5132923;27;746;-66
2022/04/14 10:10:33;;;;;;;;;;;;;;;;;;5115152;27;1314;-67
2022/04/14 10:13:05;;;;;;;;;;;;;;;;;;5114147;27;824;-67
2022/04/14 10:15:31;;;;;;;;;;;;;;;;;;5132977;27;831;-67
2022/04/14 10:17:57;;;;;;;;;;;;;;;;;;5132171;27;1004;-67
2022/04/14 10:20:25;;;;;;;;;;;;;;;;;;5133007;27;1958;-67
2022/04/14 10:22:50;;;;;;;;;;;;;;;;;;5132635;27;812;-67
2022/04/14 10:25:15;;;;;;;;;;;;;;;;;;5132669;27;894;-67
2022/04/14 10:27:41;;;;;;;;;;;;;;;;;;5113944;27;1213;-67
2022/04/14 10:30:07;;;;;;;;;;;;;;;;;;5114148;27;1186;-67
2022/04/14 10:32:33;;;;;;;;;;;;;;;;;;5132843;27;904;-67
2022/04/14 10:34:59;;;;;;;;;;;;;;;;;;5131814;27;800;-67
2022/04/14 10:37:29;;;;;;;;;;;;;;;;;;5132550;27;839;-66
2022/04/14 10:39:55;;;;;;;;;;;;;;;;;;5132122;27;1893;-67
2022/04/14 10:42:24;;;;;;;;;;;;;;;;;;5132397;27;970;-67
2022/04/14 10:44:51;;;;;;;;;;;;;;;;;;5131835;27;1058;-67
2022/04/14 10:47:32;;;;;;;;;;;;;;;;;;5131666;27;860;-66
2022/04/14 10:49:57;;;;;;;;;;;;;;;;;;5130822;27;1354;-67
2022/04/14 10:52:24;;;;;;;;;;;;;;;;;;5132041;27;954;-67
2022/04/14 10:54:59;;;;;;;;;;;;;;;;;;5112920;28;1676;-67
2022/04/14 10:57:40;;;;;;;;;;;;;;;;;;5132002;28;980;-67
2022/04/14 11:00:21;;;;;;;;;;;;;;;;;;5131195;28;1985;-67
2022/04/14 11:03:03;;;;;;;;;;;;;;;;;;5112923;28;1372;-67
2022/04/14 11:05:37;;;;;;;;;;;;;;;;;;5132082;28;932;-67
2022/04/14 11:08:21;;;;;;;;;;;;;;;;;;5131243;28;1006;-68
2022/04/14 11:11:13;;;;;;;;;;;;;;;;;;5112845;28;1219;-67
2022/04/14 11:13:50;;;;;;;;;;;;;;;;;;5127402;28;1138;-67
2022/04/14 11:16:34;;;;;;;;;;;;;;;;;;5131873;28;895;-67
2022/04/14 11:19:14;;;;;;;;;;;;;;;;;;5112579;28;1158;-67
2022/04/14 11:21:58;;;;;;;;;;;;;;;;;;5131299;28;1970;-67
2022/04/14 11:24:35;;;;;;;;;;;;;;;;;;5131746;28;970;-67
2022/04/14 11:27:17;;;;;;;;;;;;;;;;;;5131315;28;812;-67
2022/04/14 11:29:43;;;;;;;;;;;;;;;;;;5113615;28;1329;-67
2022/04/14 11:32:09;;;;;;;;;;;;;;;;;;5131080;28;855;-67
2022/04/14 11:34:35;;;;;;;;;;;;;;;;;;5131599;28;1004;-67
2022/04/14 11:37:03;;;;;;;;;;;;;;;;;;5130958;28;894;-67
2022/04/14 11:39:29;;;;;;;;;;;;;;;;;;5131253;28;816;-67
2022/04/14 11:41:55;;;;;;;;;;;;;;;;;;5130721;28;1906;-67
2022/04/14 11:44:34;;;;;;;;;;;;;;;;;;5131447;28;773;-67
2022/04/14 11:47:01;;;;;;;;;;;;;;;;;;5132272;27;1210;-67
2022/04/14 11:49:27;;;;;;;;;;;;;;;;;;5133547;27;1079;-67
2022/04/14 11:51:53;;;;;;;;;;;;;;;;;;5152264;27;855;-67
2022/04/14 11:54:33;;;;;;;;;;;;;;;;;;5152244;27;816;-67
2022/04/14 11:57:01;;;;;;;;;;;;;;;;;;5133638;27;1201;-67
2022/04/14 11:59:40;;;;;;;;;;;;;;;;;;5152980;27;847;-67
2022/04/14 12:02:07;;;;;;;;;;;;;;;;;;5122590;27;1913;-67
2022/04/14 12:04:45;;;;;;;;;;;;;;;;;;5154286;27;1226;-67
2022/04/14 12:07:10;;;;;;;;;;;;;;;;;;5136557;27;1265;-67
2022/04/14 12:09:37;;;;;;;;;;;;;;;;;;5156739;27;769;-67
2022/04/14 12:12:12;;;;;;;;;;;;;;;;;;5137382;27;725;-67
2022/04/14 12:14:41;;;;;;;;;;;;;;;;;;5156839;27;847;-67
2022/04/14 12:17:06;;;;;;;;;;;;;;;;;;5155953;27;827;-67
2022/04/14 12:19:45;;;;;;;;;;;;;;;;;;5156348;27;938;-67
2022/04/14 12:22:11;;;;;;;;;;;;;;;;;;5137061;27;1961;-68
2022/04/14 12:24:36;;;;;;;;;;;;;;;;;;5154631;27;1122;-67
2022/04/14 12:27:02;;;;;;;;;;;;;;;;;;5154061;27;1203;-67
2022/04/14 12:29:27;;;;;;;;;;;;;;;;;;5156129;27;902;-67
2022/04/14 12:32:11;;;;;;;;;;;;;;;;;;5155452;27;801;-67
2022/04/14 12:34:40;;;;;;;;;;;;;;;;;;5155269;27;1021;-67
2022/04/14 12:37:07;;;;;;;;;;;;;;;;;;5154953;27;891;-67
2022/04/14 12:39:33;;;;;;;;;;;;;;;;;;5155245;27;1228;-67
2022/04/14 12:41:59;;;;;;;;;;;;;;;;;;5155036;27;1905;-67
2022/04/14 12:44:24;;;;;;;;;;;;;;;;;;5155696;27;935;-67
2022/04/14 12:46:50;;;;;;;;;;;;;;;;;;5136891;27;895;-67
2022/04/14 12:49:19;;;;;;;;;;;;;;;;;;5154808;27;1426;-67
2022/04/14 12:52:07;;;;;;;;;;;;;;;;;;5155377;27;840;-67
2022/04/14 12:54:33;;;;;;;;;;;;;;;;;;5136175;27;662;-68
2022/04/14 12:57:00;;;;;;;;;;;;;;;;;;5154597;27;855;-68
2022/04/14 12:59:26;;;;;;;;;;;;;;;;;;5119309;27;1414;-68
2022/04/14 13:02:01;;;;;;;;;;;;;;;;;;5154915;27;1980;-68
2022/04/14 13:04:34;;;;;;;;;;;;;;;;;;5154919;27;898;-67
2022/04/14 13:07:00;;;;;;;;;;;;;;;;;;5154451;27;847;-67
2022/04/14 13:09:26;;;;;;;;;;;;;;;;;;5135939;27;1467;-67
2022/04/14 13:11:52;;;;;;;;;;;;;;;;;;5154551;27;757;-67
2022/04/14 13:14:27;;;;;;;;;;;;;;;;;;5117729;27;1229;-68
2022/04/14 13:16:54;;;;;;;;;;;;;;;;;;5154431;27;914;-68
2022/04/14 13:19:20;;;;;;;;;;;;;;;;;;5136120;27;907;-68
2022/04/14 13:21:46;;;;;;;;;;;;;;;;;;5154442;27;1968;-68
2022/04/14 13:24:11;;;;;;;;;;;;;;;;;;5135658;27;808;-67
2022/04/14 13:26:36;;;;;;;;;;;;;;;;;;5154298;27;816;-67
2022/04/14 13:29:02;;;;;;;;;;;;;;;;;;5135443;27;867;-67
2022/04/14 13:31:27;;;;;;;;;;;;;;;;;;5153959;27;780;-67
2022/04/14 13:33:53;;;;;;;;;;;;;;;;;;5154081;27;993;-67
2022/04/14 13:36:18;;;;;;;;;;;;;;;;;;5136068;27;851;-67
2022/04/14 13:38:43;;;;;;;;;;;;;;;;;;5154524;27;828;-67
2022/04/14 13:41:09;;;;;;;;;;;;;;;;;;5153427;27;1954;-68
2022/04/14 13:43:34;;;;;;;;;;;;;;;;;;5154234;27;1157;-68
2022/04/14 13:45:59;;;;;;;;;;;;;;;;;;5154411;27;1090;-68
2022/04/14 13:48:25;;;;;;;;;;;;;;;;;;5154064;27;875;-68
2022/04/14 13:50:50;;;;;;;;;;;;;;;;;;5154202;27;1435;-68
2022/04/14 13:53:17;;;;;;;;;;;;;;;;;;5135753;27;1014;-68
2022/04/14 13:55:42;;;;;;;;;;;;;;;;;;5136105;27;887;-68
2022/04/14 13:58:08;;;;;;;;;;;;;;;;;;5133313;27;1226;-68
2022/04/14 14:00:33;;;;;;;;;;;;;;;;;;5150108;27;1913;-68
2022/04/14 14:02:59;;;;;;;;;;;;;;;;;;5153991;27;978;-68
2022/04/14 14:05:27;;;;;;;;;;;;;;;;;;5153932;27;840;-68
2022/04/14 14:07:52;;;;;;;;;;;;;;;;;;5154455;27;750;-67
2022/04/14 14:10:17;;;;;;;;;;;;;;;;;;5154008;27;935;-68
2022/04/14 14:12:43;;;;;;;;;;;;;;;;;;5123997;27;1613;-68
2022/04/14 14:15:10;;;;;;;;;;;;;;;;;;5112608;28;871;-67
2022/04/14 14:17:38;;;;;;;;;;;;;;;;;;5122687;27;1186;-68
2022/04/14 14:20:07;;;;;;;;;;;;;;;;;;5132668;27;1897;-67
2022/04/14 14:22:33;;;;;;;;;;;;;;;;;;5132391;27;856;-68
2022/04/14 14:24:58;;;;;;;;;;;;;;;;;;5131528;27;761;-68
2022/04/14 14:27:24;;;;;;;;;;;;;;;;;;5132724;27;835;-68
2022/04/14 14:29:49;;;;;;;;;;;;;;;;;;5132189;27;899;-67
2022/04/14 14:32:14;;;;;;;;;;;;;;;;;;5132289;27;859;-67
2022/04/14 14:34:39;;;;;;;;;;;;;;;;;;5132849;27;963;-67
2022/04/14 14:37:07;;;;;;;;;;;;;;;;;;5096908;27;1203;-68
2022/04/14 14:39:32;;;;;;;;;;;;;;;;;;5113601;27;1345;-68
2022/04/14 14:41:58;;;;;;;;;;;;;;;;;;5132556;27;1964;-68
2022/04/14 14:44:23;;;;;;;;;;;;;;;;;;5132205;27;985;-68
2022/04/14 14:46:48;;;;;;;;;;;;;;;;;;5132509;27;892;-68
2022/04/14 14:49:14;;;;;;;;;;;;;;;;;;5131545;27;1291;-68
2022/04/14 14:51:40;;;;;;;;;;;;;;;;;;5113575;27;1368;-68
2022/04/14 14:54:05;;;;;;;;;;;;;;;;;;5113791;27;891;-68
2022/04/14 14:56:30;;;;;;;;;;;;;;;;;;5131876;27;1223;-68
2022/04/14 14:59:15;;;;;;;;;;;;;;;;;;5132290;27;838;-68
2022/04/14 15:01:47;;;;;;;;;;;;;;;;;;5113822;28;1957;-68
2022/04/14 15:04:13;;;;;;;;;;;;;;;;;;5114132;28;1596;-68
2022/04/14 15:06:39;;;;;;;;;;;;;;;;;;5132110;28;950;-68
2022/04/14 15:09:05;;;;;;;;;;;;;;;;;;5132026;28;848;-68
2022/04/14 15:11:31;;;;;;;;;;;;;;;;;;5132374;28;828;-68
2022/04/14 15:13:56;;;;;;;;;;;;;;;;;;5132327;28;1002;-68
2022/04/14 15:16:21;;;;;;;;;;;;;;;;;;5132009;28;910;-68
2022/04/14 15:18:47;;;;;;;;;;;;;;;;;;5131875;28;1001;-68
2022/04/14 15:21:12;;;;;;;;;;;;;;;;;;5113286;28;1993;-68
2022/04/14 15:23:38;;;;;;;;;;;;;;;;;;5131587;28;954;-69
2022/04/14 15:26:03;;;;;;;;;;;;;;;;;;5131840;28;979;-68
2022/04/14 15:28:30;;;;;;;;;;;;;;;;;;5131556;28;946;-67
2022/04/14 15:30:59;;;;;;;;;;;;;;;;;;5130722;28;846;-68
2022/04/14 15:33:26;;;;;;;;;;;;;;;;;;5113293;28;989;-68
2022/04/14 15:35:51;;;;;;;;;;;;;;;;;;5132954;27;922;-68
2022/04/14 15:38:16;;;;;;;;;;;;;;;;;;5136087;27;848;-68
2022/04/14 15:40:42;;;;;;;;;;;;;;;;;;5135423;27;1906;-68
2022/04/14 15:43:07;;;;;;;;;;;;;;;;;;5136113;27;879;-68
2022/04/14 15:45:32;;;;;;;;;;;;;;;;;;5136274;27;1101;-68
2022/04/14 15:47:58;;;;;;;;;;;;;;;;;;5135699;27;898;-68
2022/04/14 15:50:23;;;;;;;;;;;;;;;;;;5135689;27;1080;-68
2022/04/14 15:52:48;;;;;;;;;;;;;;;;;;5135734;27;846;-68
2022/04/14 15:55:14;;;;;;;;;;;;;;;;;;5135559;27;895;-68
2022/04/14 15:57:39;;;;;;;;;;;;;;;;;;5116843;27;841;-68
2022/04/14 16:00:06;;;;;;;;;;;;;;;;;;5134915;27;1984;-68
2022/04/14 16:02:31;;;;;;;;;;;;;;;;;;5135305;27;863;-68
2022/04/14 16:04:56;;;;;;;;;;;;;;;;;;5134927;27;923;-68
2022/04/14 16:07:22;;;;;;;;;;;;;;;;;;5135586;27;840;-68
2022/04/14 16:12:31;;;;;;;;;;;;;;;;;;5114115;28;623;-68
2022/04/14 16:14:56;;;;;;;;;;;;;;;;;;5114517;28;966;-68
2022/04/14 16:17:21;;;;;;;;;;;;;;;;;;5114469;28;856;-68
2022/04/14 16:19:46;;;;;;;;;;;;;;;;;;5114329;28;1006;-68
2022/04/14 16:22:12;;;;;;;;;;;;;;;;;;5114221;28;1886;-68
2022/04/14 16:24:37;;;;;;;;;;;;;;;;;;5095852;28;959;-68
2022/04/14 16:27:03;;;;;;;;;;;;;;;;;;5095967;28;840;-68
2022/04/14 16:29:29;;;;;;;;;;;;;;;;;;5113833;28;915;-68
2022/04/14 16:31:54;;;;;;;;;;;;;;;;;;5095930;28;1220;-68
2022/04/14 16:34:20;;;;;;;;;;;;;;;;;;5078549;28;903;-68
2022/04/14 16:36:45;;;;;;;;;;;;;;;;;;5113688;28;907;-67
2022/04/14 16:39:11;;;;;;;;;;;;;;;;;;5113589;28;848;-68
2022/04/14 16:41:40;;;;;;;;;;;;;;;;;;5095000;28;1890;-68
2022/04/14 16:44:05;;;;;;;;;;;;;;;;;;5113441;28;879;-68
2022/04/14 16:46:31;;;;;;;;;;;;;;;;;;5113237;28;923;-68
2022/04/14 16:48:57;;;;;;;;;;;;;;;;;;5112785;28;927;-68
2022/04/14 16:51:22;;;;;;;;;;;;;;;;;;5113130;28;1155;-67
2022/04/14 16:53:47;;;;;;;;;;;;;;;;;;5113204;28;959;-68
2022/04/14 16:56:13;;;;;;;;;;;;;;;;;;5112979;28;840;-68
2022/04/14 16:58:38;;;;;;;;;;;;;;;;;;5113408;28;833;-67
2022/04/14 17:01:04;;;;;;;;;;;;;;;;;;5112894;28;1929;-68
2022/04/14 17:03:29;;;;;;;;;;;;;;;;;;5095100;28;879;-68
2022/04/14 17:05:55;;;;;;;;;;;;;;;;;;5112985;28;840;-68
2022/04/14 17:08:20;;;;;;;;;;;;;;;;;;5113210;28;848;-68
2022/04/14 17:10:45;;;;;;;;;;;;;;;;;;5113256;28;968;-68
2022/04/14 17:13:11;;;;;;;;;;;;;;;;;;5113024;28;962;-68